Pukou, China
Current Conditions -  °F | °C
As of 4:00 AM on Friday 28 Nov 2014 (Local Time) from ZSNJ Reporting Station
Overcast Overcast  
Wind Chill: 54°   Ceiling: 3300
Heat Index: 54°   Visibility: 5mi
Dew Point: 50°   Wind: 9mph
Humidity: 88%   Direction: 300°WNW
Pressure: 30.06"   Gusts: NA
Location:  32.1°N, 118.71°E
Report Text: ZSNJ 272000Z 30004MPS 8000 SCT012 OVC033 12/10 Q1018 NOSIG
Loading
Personal Weather Stations






























Interactive Weather Map New forecast layout! Learn more

10-Day Weather Forecast

Advertisements
Track Severe Weather on mobile